createdAt,value
2018-11-25T00:00:29.692Z,993.98
2018-11-25T00:01:29.713Z,993.91
2018-11-25T00:02:29.731Z,993.87
2018-11-25T00:03:29.750Z,993.89
2018-11-25T00:04:29.765Z,993.87
2018-11-25T00:05:29.787Z,993.88
2018-11-25T00:06:29.806Z,993.85
2018-11-25T00:07:34.590Z,993.85
2018-11-25T00:08:29.840Z,993.88
2018-11-25T00:09:29.858Z,993.86
2018-11-25T00:10:29.878Z,993.88
2018-11-25T00:11:29.891Z,993.86
2018-11-25T00:12:29.909Z,993.88
2018-11-25T00:13:29.931Z,993.89
2018-11-25T00:14:29.944Z,993.9
2018-11-25T00:15:29.968Z,993.87
2018-11-25T00:16:29.982Z,993.89
2018-11-25T00:17:30.000Z,993.89
2018-11-25T00:18:30.018Z,993.93
2018-11-25T00:19:30.037Z,993.9
2018-11-25T00:20:30.055Z,993.87
2018-11-25T00:21:30.073Z,993.87
2018-11-25T00:22:30.092Z,993.89
2018-11-25T00:23:30.108Z,993.89
2018-11-25T00:24:30.126Z,993.86
2018-11-25T00:25:30.143Z,993.91
2018-11-25T00:26:30.167Z,993.88
2018-11-25T00:27:30.179Z,993.89
2018-11-25T00:28:30.202Z,993.86
2018-11-25T00:29:30.215Z,993.83
2018-11-25T00:30:30.237Z,993.87
2018-11-25T00:31:30.255Z,993.88
2018-11-25T00:32:30.275Z,993.83
2018-11-25T00:33:30.291Z,993.83
2018-11-25T00:34:30.307Z,993.84
2018-11-25T00:35:30.324Z,993.85
2018-11-25T00:36:30.346Z,993.85
2018-11-25T00:37:30.359Z,993.84
2018-11-25T00:38:30.382Z,993.82
2018-11-25T00:39:30.398Z,993.82
2018-11-25T00:40:30.413Z,993.84
2018-11-25T00:41:30.437Z,993.81
2018-11-25T00:42:30.458Z,993.85
2018-11-25T00:43:30.470Z,993.85
2018-11-25T00:44:30.489Z,993.8
2018-11-25T00:45:30.508Z,993.84
2018-11-25T00:46:30.522Z,993.85
2018-11-25T00:47:30.539Z,993.83
2018-11-25T00:48:30.563Z,993.82
2018-11-25T00:49:30.583Z,993.8
2018-11-25T00:50:30.596Z,993.83
2018-11-25T00:51:30.613Z,993.8
2018-11-25T00:52:30.633Z,993.81
2018-11-25T00:53:30.648Z,993.82
2018-11-25T00:54:30.669Z,993.81
2018-11-25T00:55:30.685Z,993.86
2018-11-25T00:56:30.705Z,993.86
2018-11-25T00:57:30.725Z,993.85
2018-11-25T00:58:30.743Z,993.85
2018-11-25T00:59:30.761Z,993.86
2018-11-25T01:00:30.776Z,993.83
2018-11-25T01:01:30.797Z,993.82
2018-11-25T01:02:30.812Z,993.85
2018-11-25T01:03:30.830Z,993.84
2018-11-25T01:04:30.856Z,993.82
2018-11-25T01:05:30.866Z,993.82
2018-11-25T01:06:30.885Z,993.83
2018-11-25T01:07:30.904Z,993.82
2018-11-25T01:08:30.920Z,993.84
2018-11-25T01:09:30.938Z,993.83
2018-11-25T01:10:30.960Z,993.8
2018-11-25T01:11:30.974Z,993.84
2018-11-25T01:12:30.994Z,993.81
2018-11-25T01:13:31.009Z,993.84
2018-11-25T01:14:31.032Z,993.8
2018-11-25T01:15:31.053Z,993.79
2018-11-25T01:16:31.067Z,993.76
2018-11-25T01:17:31.087Z,993.81
2018-11-25T01:18:31.102Z,993.79
2018-11-25T01:19:31.123Z,993.84
2018-11-25T01:20:31.140Z,993.82
2018-11-25T01:21:31.153Z,993.82
2018-11-25T01:22:31.175Z,993.81
2018-11-25T01:23:31.193Z,993.87
2018-11-25T01:24:31.210Z,993.83
2018-11-25T01:25:31.228Z,993.86
2018-11-25T01:26:31.255Z,993.87
2018-11-25T01:27:31.269Z,993.88
2018-11-25T01:28:31.284Z,993.91
2018-11-25T01:29:31.305Z,993.87
2018-11-25T01:30:31.320Z,993.92
2018-11-25T01:31:31.336Z,993.93
2018-11-25T01:32:31.358Z,993.91
2018-11-25T01:33:31.377Z,993.89
2018-11-25T01:34:31.392Z,993.89
2018-11-25T01:35:31.413Z,993.92
2018-11-25T01:36:31.426Z,993.92
2018-11-25T01:37:31.450Z,993.88
2018-11-25T01:38:31.467Z,993.9
2018-11-25T01:39:31.482Z,993.88
2018-11-25T01:40:31.501Z,993.89
2018-11-25T01:41:31.518Z,993.85
2018-11-25T01:42:31.546Z,993.85
2018-11-25T01:43:31.555Z,993.85
2018-11-25T01:44:31.577Z,993.84
2018-11-25T01:45:31.591Z,993.81
2018-11-25T01:46:31.608Z,993.84
2018-11-25T01:47:31.627Z,993.85
2018-11-25T01:48:31.645Z,993.79
2018-11-25T01:49:31.667Z,993.83
2018-11-25T01:50:31.682Z,993.77
2018-11-25T01:51:31.700Z,993.75
2018-11-25T01:52:31.719Z,993.77
2018-11-25T01:53:31.735Z,993.73
2018-11-25T01:54:31.754Z,993.74
2018-11-25T01:55:31.772Z,993.73
2018-11-25T01:56:31.789Z,993.74
2018-11-25T01:57:31.807Z,993.71
2018-11-25T01:58:31.828Z,993.74
2018-11-25T01:59:31.844Z,993.73
2018-11-25T02:00:31.862Z,993.74
2018-11-25T02:01:31.885Z,993.75
2018-11-25T02:02:31.899Z,993.71
2018-11-25T02:03:31.918Z,993.75
2018-11-25T02:04:31.939Z,993.71
2018-11-25T02:05:31.956Z,993.71
2018-11-25T02:06:31.986Z,993.67
2018-11-25T02:07:31.990Z,993.67
2018-11-25T02:08:32.010Z,993.69
2018-11-25T02:09:32.028Z,993.68
2018-11-25T02:10:32.042Z,993.64
2018-11-25T02:11:32.064Z,993.65
2018-11-25T02:12:32.079Z,993.61
2018-11-25T02:13:32.099Z,993.62
2018-11-25T02:14:32.116Z,993.66
2018-11-25T02:15:32.133Z,993.63
2018-11-25T02:16:32.151Z,993.66
2018-11-25T02:17:32.169Z,993.64
2018-11-25T02:18:32.189Z,993.61
2018-11-25T02:19:32.210Z,993.64
2018-11-25T02:20:32.230Z,993.64
2018-11-25T02:21:32.243Z,993.61
2018-11-25T02:22:32.264Z,993.61
2018-11-25T02:23:32.277Z,993.62
2018-11-25T02:24:32.296Z,993.59
2018-11-25T02:25:32.314Z,993.56
2018-11-25T02:26:32.332Z,993.52
2018-11-25T02:27:32.351Z,993.54
2018-11-25T02:28:32.373Z,993.54
2018-11-25T02:29:32.387Z,993.49
2018-11-25T02:30:32.410Z,993.54
2018-11-25T02:31:32.427Z,993.49
2018-11-25T02:32:32.443Z,993.53
2018-11-25T02:33:32.459Z,993.51
2018-11-25T02:34:32.481Z,993.52
2018-11-25T02:35:32.497Z,993.53
2018-11-25T02:36:32.514Z,993.52
2018-11-25T02:37:32.531Z,993.52
2018-11-25T02:38:32.551Z,993.53
2018-11-25T02:39:32.572Z,993.49
2018-11-25T02:40:32.587Z,993.48
2018-11-25T02:41:32.606Z,993.5
2018-11-25T02:42:32.622Z,993.51
2018-11-25T02:43:32.641Z,993.47
2018-11-25T02:44:32.657Z,993.47
2018-11-25T02:45:32.681Z,993.48
2018-11-25T02:46:32.695Z,993.47
2018-11-25T02:47:32.713Z,993.46
2018-11-25T02:48:32.730Z,993.53
2018-11-25T02:49:32.754Z,993.48
2018-11-25T02:50:32.774Z,993.43
2018-11-25T02:51:32.786Z,993.53
2018-11-25T02:52:32.804Z,993.53
2018-11-25T02:53:32.825Z,993.53
2018-11-25T02:54:32.840Z,993.52
2018-11-25T02:55:32.858Z,993.51
2018-11-25T02:56:32.875Z,993.49
2018-11-25T02:57:32.899Z,993.51
2018-11-25T02:58:32.915Z,993.55
2018-11-25T02:59:32.929Z,993.5
2018-11-25T03:00:32.949Z,993.5
2018-11-25T03:01:32.967Z,993.48
2018-11-25T03:02:32.985Z,993.48
2018-11-25T03:03:33.004Z,993.5
2018-11-25T03:04:33.022Z,993.48
2018-11-25T03:05:33.045Z,993.48
2018-11-25T03:06:33.063Z,993.5
2018-11-25T03:07:33.088Z,993.52
2018-11-25T03:08:33.094Z,993.49
2018-11-25T03:09:33.118Z,993.51
2018-11-25T03:10:33.135Z,993.53
2018-11-25T03:11:33.149Z,993.55
2018-11-25T03:12:33.167Z,993.52
2018-11-25T03:13:33.184Z,993.57
2018-11-25T03:14:33.237Z,993.54
2018-11-25T03:15:33.223Z,993.59
2018-11-25T03:16:33.240Z,993.53
2018-11-25T03:17:33.257Z,993.57
2018-11-25T03:18:33.280Z,993.6
2018-11-25T03:19:33.294Z,993.57
2018-11-25T03:20:33.314Z,993.58
2018-11-25T03:21:33.333Z,993.57
2018-11-25T03:22:33.349Z,993.61
2018-11-25T03:23:33.370Z,993.58
2018-11-25T03:24:33.387Z,993.65
2018-11-25T03:25:33.404Z,993.64
2018-11-25T03:26:33.421Z,993.6
2018-11-25T03:27:33.438Z,993.62
2018-11-25T03:28:33.461Z,993.65
2018-11-25T03:29:33.479Z,993.61
2018-11-25T03:30:33.494Z,993.57
2018-11-25T03:31:33.516Z,993.62
2018-11-25T03:32:33.529Z,993.63
2018-11-25T03:33:33.549Z,993.62
2018-11-25T03:34:33.568Z,993.65
2018-11-25T03:35:33.588Z,993.63
2018-11-25T03:36:33.604Z,993.66
2018-11-25T03:37:33.622Z,993.65
2018-11-25T03:38:33.691Z,993.66
2018-11-25T03:39:33.658Z,993.65
2018-11-25T03:40:33.676Z,993.65
2018-11-25T03:41:33.698Z,993.64
2018-11-25T03:42:33.711Z,993.64
2018-11-25T03:43:33.730Z,993.64
2018-11-25T03:44:33.750Z,993.62
2018-11-25T03:45:33.771Z,993.64
2018-11-25T03:46:33.789Z,993.62
2018-11-25T03:47:33.807Z,993.62
2018-11-25T03:48:33.822Z,993.65
2018-11-25T03:49:33.843Z,993.65
2018-11-25T03:50:33.860Z,993.65
2018-11-25T03:51:33.875Z,993.68
2018-11-25T03:52:33.899Z,993.59
2018-11-25T03:53:33.912Z,993.64
2018-11-25T03:54:33.934Z,993.65
2018-11-25T03:55:33.952Z,993.67
2018-11-25T03:56:33.967Z,993.68
2018-11-25T03:57:33.984Z,993.67
2018-11-25T03:58:34.006Z,993.67
2018-11-25T03:59:34.021Z,993.69
2018-11-25T04:00:34.044Z,993.68
2018-11-25T04:01:34.061Z,993.68
2018-11-25T04:02:34.144Z,993.71
2018-11-25T04:03:34.094Z,993.71
2018-11-25T04:04:34.111Z,993.72
2018-11-25T04:05:34.134Z,993.73
2018-11-25T04:06:34.148Z,993.72
2018-11-25T04:07:34.165Z,993.69
2018-11-25T04:08:34.187Z,993.68
2018-11-25T04:09:34.202Z,993.7
2018-11-25T04:10:34.223Z,993.67
2018-11-25T04:11:34.240Z,993.7
2018-11-25T04:12:34.257Z,993.69
2018-11-25T04:13:34.280Z,993.7
2018-11-25T04:14:34.294Z,993.73
2018-11-25T04:15:34.313Z,993.72
2018-11-25T04:16:34.330Z,993.73
2018-11-25T04:17:34.349Z,993.75
2018-11-25T04:18:34.367Z,993.78
2018-11-25T04:19:34.387Z,993.74
2018-11-25T04:20:34.403Z,993.72
2018-11-25T04:21:34.425Z,993.74
2018-11-25T04:22:34.442Z,993.73
2018-11-25T04:23:34.459Z,993.7
2018-11-25T04:24:34.474Z,993.72
2018-11-25T04:25:34.496Z,993.72
2018-11-25T04:26:34.517Z,993.75
2018-11-25T04:27:34.530Z,993.71
2018-11-25T04:28:34.548Z,993.72
2018-11-25T04:29:34.566Z,993.71
2018-11-25T04:30:34.583Z,993.73
2018-11-25T04:31:34.603Z,993.74
2018-11-25T04:32:34.624Z,993.74
2018-11-25T04:33:34.639Z,993.73
2018-11-25T04:34:34.660Z,993.72
2018-11-25T04:35:34.676Z,993.77
2018-11-25T04:36:34.693Z,993.72
2018-11-25T04:37:34.717Z,993.73
2018-11-25T04:38:34.730Z,993.72
2018-11-25T04:39:34.751Z,993.76
2018-11-25T04:40:34.771Z,993.76
2018-11-25T04:41:34.785Z,993.77
2018-11-25T04:42:34.809Z,993.77
2018-11-25T04:43:34.823Z,993.79
2018-11-25T04:44:34.841Z,993.8
2018-11-25T04:45:34.864Z,993.8
2018-11-25T04:46:34.880Z,993.82
2018-11-25T04:47:34.895Z,993.81
2018-11-25T04:48:34.917Z,993.81
2018-11-25T04:49:34.930Z,993.83
2018-11-25T04:50:34.952Z,993.82
2018-11-25T04:51:34.967Z,993.85
2018-11-25T04:52:34.988Z,993.85
2018-11-25T04:53:35.005Z,993.84
2018-11-25T04:54:35.022Z,993.82
2018-11-25T04:55:35.044Z,993.83
2018-11-25T04:56:35.057Z,993.84
2018-11-25T04:57:35.076Z,993.81
2018-11-25T04:58:35.099Z,993.82
2018-11-25T04:59:35.113Z,993.88
2018-11-25T05:00:35.129Z,993.83
2018-11-25T05:01:35.152Z,993.81
2018-11-25T05:02:35.167Z,993.83
2018-11-25T05:03:35.183Z,993.82
2018-11-25T05:04:35.202Z,993.82
2018-11-25T05:05:35.222Z,993.82
2018-11-25T05:06:35.243Z,993.81
2018-11-25T05:07:35.264Z,993.82
2018-11-25T05:08:35.282Z,993.82
2018-11-25T05:09:35.294Z,993.83
2018-11-25T05:10:35.316Z,993.89
2018-11-25T05:11:35.340Z,993.83
2018-11-25T05:12:35.353Z,993.88
2018-11-25T05:13:35.371Z,993.87
2018-11-25T05:14:35.385Z,993.81
2018-11-25T05:15:35.402Z,993.79
2018-11-25T05:16:35.421Z,993.8
2018-11-25T05:17:35.439Z,993.84
2018-11-25T05:18:35.456Z,993.82
2018-11-25T05:19:35.474Z,993.8
2018-11-25T05:20:35.499Z,993.8
2018-11-25T05:21:35.516Z,993.82
2018-11-25T05:22:35.530Z,993.83
2018-11-25T05:23:35.548Z,993.83
2018-11-25T05:24:35.566Z,993.88
2018-11-25T05:25:35.584Z,993.86
2018-11-25T05:26:35.603Z,993.81
2018-11-25T05:27:35.621Z,993.86
2018-11-25T05:28:35.640Z,993.82
2018-11-25T05:29:35.657Z,993.87
2018-11-25T05:30:35.675Z,993.85
2018-11-25T05:31:35.698Z,993.86
2018-11-25T05:32:35.709Z,993.84
2018-11-25T05:33:35.729Z,993.86
2018-11-25T05:34:35.751Z,993.87
2018-11-25T05:35:35.767Z,993.86
2018-11-25T05:36:35.783Z,993.9
2018-11-25T05:37:35.804Z,993.91
2018-11-25T05:38:35.822Z,993.92
2018-11-25T05:39:35.841Z,993.89
2018-11-25T05:40:35.855Z,993.87
2018-11-25T05:41:35.879Z,993.93
2018-11-25T05:42:35.896Z,993.9
2018-11-25T05:43:35.910Z,993.9
2018-11-25T05:44:35.929Z,993.95
2018-11-25T05:45:35.948Z,993.93
2018-11-25T05:46:35.966Z,993.93
2018-11-25T05:47:35.983Z,993.93
2018-11-25T05:48:36.001Z,993.95
2018-11-25T05:49:36.654Z,993.97
2018-11-25T05:50:36.038Z,993.96
2018-11-25T05:51:36.056Z,993.98
2018-11-25T05:52:36.078Z,993.97
2018-11-25T05:53:36.096Z,993.99
2018-11-25T05:54:36.113Z,993.95
2018-11-25T05:55:36.130Z,993.97
2018-11-25T05:56:36.148Z,993.99
2018-11-25T05:57:36.167Z,993.99
2018-11-25T05:58:36.181Z,993.98
2018-11-25T05:59:36.200Z,994
2018-11-25T06:00:36.220Z,993.94
2018-11-25T06:01:36.237Z,993.94
2018-11-25T06:02:36.259Z,994.02
2018-11-25T06:03:36.273Z,994.01
2018-11-25T06:04:36.292Z,994
2018-11-25T06:05:36.310Z,994.02
2018-11-25T06:06:36.328Z,994.02
2018-11-25T06:07:36.346Z,994.03
2018-11-25T06:08:36.365Z,994
2018-11-25T06:09:36.383Z,994.03
2018-11-25T06:10:36.400Z,994
2018-11-25T06:11:36.418Z,994.03
2018-11-25T06:12:36.436Z,994.01
2018-11-25T06:13:36.455Z,994
2018-11-25T06:14:36.478Z,994.02
2018-11-25T06:15:36.493Z,994.05
2018-11-25T06:16:36.513Z,994.06
2018-11-25T06:17:36.528Z,994.09
2018-11-25T06:18:36.546Z,994.1
2018-11-25T06:19:36.569Z,994.1
2018-11-25T06:20:36.585Z,994.07
2018-11-25T06:21:36.604Z,994.11
2018-11-25T06:22:36.619Z,994.13
2018-11-25T06:23:36.639Z,994.16
2018-11-25T06:24:36.659Z,994.11
2018-11-25T06:25:36.701Z,994.13
2018-11-25T06:26:36.695Z,994.12
2018-11-25T06:27:38.145Z,994.15
2018-11-25T06:28:36.728Z,994.14
2018-11-25T06:29:36.749Z,994.09
2018-11-25T06:30:36.769Z,994.09
2018-11-25T06:31:36.783Z,994.1
2018-11-25T06:32:36.804Z,994.08
2018-11-25T06:33:36.820Z,994.07
2018-11-25T06:34:36.841Z,994.11
2018-11-25T06:35:36.859Z,994.12
2018-11-25T06:36:36.875Z,994.2
2018-11-25T06:37:36.898Z,994.16
2018-11-25T06:38:36.917Z,994.2
2018-11-25T06:39:36.927Z,994.17
2018-11-25T06:40:36.946Z,994.19
2018-11-25T06:41:36.964Z,994.16
2018-11-25T06:42:36.983Z,994.17
2018-11-25T06:43:37.000Z,994.22
2018-11-25T06:44:37.018Z,994.2
2018-11-25T06:45:37.039Z,994.23
2018-11-25T06:46:37.055Z,994.18
2018-11-25T06:47:37.074Z,994.2
2018-11-25T06:48:37.092Z,994.2
2018-11-25T06:49:37.110Z,994.22
2018-11-25T06:50:37.126Z,994.21
2018-11-25T06:51:37.149Z,994.22
2018-11-25T06:52:37.167Z,994.22
2018-11-25T06:53:37.186Z,994.25
2018-11-25T06:54:37.200Z,994.27
2018-11-25T06:55:37.220Z,994.28
2018-11-25T06:56:37.240Z,994.23
2018-11-25T06:57:37.254Z,994.28
2018-11-25T06:58:37.276Z,994.24
2018-11-25T06:59:37.297Z,994.24
2018-11-25T07:00:37.309Z,994.24
2018-11-25T07:01:37.333Z,994.24
2018-11-25T07:02:37.346Z,994.3
2018-11-25T07:03:37.364Z,994.28
2018-11-25T07:04:37.383Z,994.27
2018-11-25T07:05:37.402Z,994.26
2018-11-25T07:06:37.419Z,994.25
2018-11-25T07:07:37.437Z,994.28
2018-11-25T07:08:37.455Z,994.28
2018-11-25T07:09:37.473Z,994.3
2018-11-25T07:10:37.491Z,994.29
2018-11-25T07:11:37.509Z,994.33
2018-11-25T07:12:37.531Z,994.3
2018-11-25T07:13:37.546Z,994.3
2018-11-25T07:14:37.563Z,994.29
2018-11-25T07:15:37.589Z,994.29
2018-11-25T07:16:37.605Z,994.23
2018-11-25T07:17:37.620Z,994.29
2018-11-25T07:18:37.635Z,994.35
2018-11-25T07:19:37.654Z,994.39
2018-11-25T07:20:37.675Z,994.35
2018-11-25T07:21:37.692Z,994.38
2018-11-25T07:22:37.713Z,994.41
2018-11-25T07:23:37.746Z,994.41
2018-11-25T07:24:37.745Z,994.4
2018-11-25T07:25:37.764Z,994.37
2018-11-25T07:26:37.782Z,994.39
2018-11-25T07:27:37.800Z,994.37
2018-11-25T07:28:37.818Z,994.43
2018-11-25T07:29:37.836Z,994.41
2018-11-25T07:30:37.854Z,994.44
2018-11-25T07:31:37.873Z,994.43
2018-11-25T07:32:37.894Z,994.42
2018-11-25T07:33:37.909Z,994.49
2018-11-25T07:34:37.926Z,994.46
2018-11-25T07:35:37.945Z,994.51
2018-11-25T07:36:37.964Z,994.51
2018-11-25T07:37:37.980Z,994.49
2018-11-25T07:38:37.998Z,994.47
2018-11-25T07:39:38.022Z,994.46
2018-11-25T07:40:38.036Z,994.48
2018-11-25T07:41:38.059Z,994.46
2018-11-25T07:42:38.076Z,994.48
2018-11-25T07:43:38.090Z,994.47
2018-11-25T07:44:38.109Z,994.46
2018-11-25T07:45:38.126Z,994.44
2018-11-25T07:46:38.148Z,994.47
2018-11-25T07:47:38.162Z,994.52
2018-11-25T07:48:38.182Z,994.51
2018-11-25T07:49:38.204Z,994.51
2018-11-25T07:50:38.219Z,994.48
2018-11-25T07:51:38.237Z,994.51
2018-11-25T07:52:38.258Z,994.48
2018-11-25T07:53:38.276Z,994.53
2018-11-25T07:54:38.296Z,994.49
2018-11-25T07:55:38.309Z,994.49
2018-11-25T07:56:38.328Z,994.53
2018-11-25T07:57:38.349Z,994.53
2018-11-25T07:58:38.364Z,994.52
2018-11-25T07:59:38.381Z,994.46
2018-11-25T08:00:38.401Z,994.48
2018-11-25T08:01:38.469Z,994.49
2018-11-25T08:02:41.512Z,994.53
2018-11-25T08:03:38.454Z,994.53
2018-11-25T08:04:38.477Z,994.54
2018-11-25T08:05:38.492Z,994.52
2018-11-25T08:06:38.511Z,994.53
2018-11-25T08:07:38.526Z,994.49
2018-11-25T08:08:38.549Z,994.51
2018-11-25T08:09:38.565Z,994.58
2018-11-25T08:10:38.582Z,994.57
2018-11-25T08:11:38.600Z,994.57
2018-11-25T08:12:38.626Z,994.58
2018-11-25T08:13:38.636Z,994.58
2018-11-25T08:14:38.654Z,994.59
2018-11-25T08:15:38.672Z,994.61
2018-11-25T08:16:38.696Z,994.6
2018-11-25T08:17:38.711Z,994.6
2018-11-25T08:18:38.731Z,994.62
2018-11-25T08:19:38.746Z,994.6
2018-11-25T08:20:38.768Z,994.6
2018-11-25T08:21:38.781Z,994.61
2018-11-25T08:22:38.803Z,994.62
2018-11-25T08:23:38.817Z,994.62
2018-11-25T08:24:38.834Z,994.6
2018-11-25T08:25:38.858Z,994.62
2018-11-25T08:26:38.873Z,994.59
2018-11-25T08:27:38.891Z,994.61
2018-11-25T08:28:38.909Z,994.62
2018-11-25T08:29:38.930Z,994.63
2018-11-25T08:30:38.943Z,994.65
2018-11-25T08:31:38.964Z,994.59
2018-11-25T08:32:38.982Z,994.59
2018-11-25T08:33:38.998Z,994.59
2018-11-25T08:34:39.017Z,994.65
2018-11-25T08:35:39.035Z,994.63
2018-11-25T08:36:39.052Z,994.59
2018-11-25T08:37:39.072Z,994.56
2018-11-25T08:38:39.091Z,994.55
2018-11-25T08:39:39.109Z,994.57
2018-11-25T08:40:39.126Z,994.6
2018-11-25T08:41:39.150Z,994.63
2018-11-25T08:42:39.167Z,994.67
2018-11-25T08:43:39.180Z,994.6
2018-11-25T08:44:39.199Z,994.53
2018-11-25T08:45:39.219Z,994.48
2018-11-25T08:46:39.239Z,994.55
2018-11-25T08:47:39.255Z,994.52
2018-11-25T08:48:39.276Z,994.59
2018-11-25T08:49:39.299Z,994.54
2018-11-25T08:50:39.308Z,994.56
2018-11-25T08:51:39.333Z,994.57
2018-11-25T08:52:39.345Z,994.51
2018-11-25T08:53:39.364Z,994.52
2018-11-25T08:54:39.379Z,994.55
2018-11-25T08:55:39.400Z,994.57
2018-11-25T08:56:39.418Z,994.57
2018-11-25T08:57:39.434Z,994.54
2018-11-25T08:58:39.453Z,994.57
2018-11-25T08:59:39.473Z,994.59
2018-11-25T09:00:39.489Z,994.57
2018-11-25T09:01:39.509Z,994.59
2018-11-25T09:02:39.526Z,994.6
2018-11-25T09:03:39.549Z,994.58
2018-11-25T09:04:39.561Z,994.58
2018-11-25T09:05:39.579Z,994.61
2018-11-25T09:06:39.599Z,994.62
2018-11-25T09:07:39.623Z,994.62
2018-11-25T09:08:39.658Z,994.59
2018-11-25T09:09:39.668Z,994.58
2018-11-25T09:10:39.675Z,994.6
2018-11-25T09:11:39.692Z,994.6
2018-11-25T09:12:39.711Z,994.61
2018-11-25T09:13:39.726Z,994.61
2018-11-25T09:14:39.744Z,994.62
2018-11-25T09:15:39.766Z,994.59
2018-11-25T09:16:39.781Z,994.63
2018-11-25T09:17:39.802Z,994.65
2018-11-25T09:18:39.817Z,994.71
2018-11-25T09:19:39.837Z,994.72
2018-11-25T09:20:39.867Z,994.69
2018-11-25T09:21:39.874Z,994.7
2018-11-25T09:22:39.891Z,994.71
2018-11-25T09:23:39.909Z,994.72
2018-11-25T09:24:39.933Z,994.67
2018-11-25T09:25:39.950Z,994.69
2018-11-25T09:26:39.962Z,994.69
2018-11-25T09:27:39.984Z,994.68
2018-11-25T09:28:40.004Z,994.71
2018-11-25T09:29:40.017Z,994.74
2018-11-25T09:30:40.043Z,994.74
2018-11-25T09:31:40.059Z,994.71
2018-11-25T09:32:40.073Z,994.71
2018-11-25T09:33:40.094Z,994.68
2018-11-25T09:34:40.107Z,994.72
2018-11-25T09:35:40.132Z,994.67
2018-11-25T09:36:40.147Z,994.64
2018-11-25T09:37:40.163Z,994.63
2018-11-25T09:38:40.181Z,994.6
2018-11-25T09:39:40.200Z,994.66
2018-11-25T09:40:40.219Z,994.67
2018-11-25T09:41:40.236Z,994.64
2018-11-25T09:42:40.254Z,994.65
2018-11-25T09:43:40.274Z,994.67
2018-11-25T09:44:40.291Z,994.64
2018-11-25T09:45:40.310Z,994.68
2018-11-25T09:46:42.625Z,994.7
2018-11-25T09:47:40.346Z,994.68
2018-11-25T09:48:40.369Z,994.68
2018-11-25T09:49:40.387Z,994.67
2018-11-25T09:50:40.402Z,994.66
2018-11-25T09:51:40.420Z,994.7
2018-11-25T09:52:40.438Z,994.69
2018-11-25T09:53:40.456Z,994.7
2018-11-25T09:54:40.474Z,994.66
2018-11-25T09:55:40.494Z,994.68
2018-11-25T09:56:40.518Z,994.66
2018-11-25T09:57:40.529Z,994.65
2018-11-25T09:58:40.550Z,994.6
2018-11-25T09:59:40.567Z,994.58
2018-11-25T10:00:40.586Z,994.6
2018-11-25T10:01:40.608Z,994.61
2018-11-25T10:02:40.627Z,994.6
2018-11-25T10:03:40.640Z,994.63
2018-11-25T10:04:40.659Z,994.6
2018-11-25T10:05:40.683Z,994.6
2018-11-25T10:06:40.696Z,994.59
2018-11-25T10:07:40.715Z,994.6
2018-11-25T10:08:40.736Z,994.58
2018-11-25T10:09:40.753Z,994.57
2018-11-25T10:10:40.769Z,994.56
2018-11-25T10:11:40.792Z,994.52
2018-11-25T10:12:40.807Z,994.5
2018-11-25T10:13:40.826Z,994.48
2018-11-25T10:14:40.842Z,994.53
2018-11-25T10:15:40.862Z,994.54
2018-11-25T10:16:40.884Z,994.49
2018-11-25T10:17:40.902Z,994.47
2018-11-25T10:18:40.918Z,994.44
2018-11-25T10:19:40.945Z,994.43
2018-11-25T10:20:40.957Z,994.43
2018-11-25T10:21:40.973Z,994.42
2018-11-25T10:22:40.991Z,994.41
2018-11-25T10:23:41.014Z,994.36
2018-11-25T10:24:41.030Z,994.35
2018-11-25T10:25:41.046Z,994.31
2018-11-25T10:26:41.065Z,994.33
2018-11-25T10:27:41.085Z,994.34
2018-11-25T10:28:41.101Z,994.3
2018-11-25T10:29:41.121Z,994.29
2018-11-25T10:30:41.139Z,994.3
2018-11-25T10:31:41.158Z,994.31
2018-11-25T10:32:42.360Z,994.32
2018-11-25T10:33:41.194Z,994.33
2018-11-25T10:34:41.214Z,994.32
2018-11-25T10:35:41.232Z,994.28
2018-11-25T10:36:41.258Z,994.31
2018-11-25T10:37:41.267Z,994.31
2018-11-25T10:38:41.294Z,994.31
2018-11-25T10:39:41.312Z,994.34
2018-11-25T10:40:41.324Z,994.3
2018-11-25T10:41:41.344Z,994.3
2018-11-25T10:42:41.360Z,994.31
2018-11-25T10:43:41.379Z,994.33
2018-11-25T10:44:41.398Z,994.33
2018-11-25T10:45:41.417Z,994.33
2018-11-25T10:46:41.435Z,994.31
2018-11-25T10:47:41.454Z,994.31
2018-11-25T10:48:41.474Z,994.28
2018-11-25T10:49:41.495Z,994.31
2018-11-25T10:50:41.512Z,994.28
2018-11-25T10:51:41.529Z,994.31
2018-11-25T10:52:41.546Z,994.28
2018-11-25T10:53:41.565Z,994.24
2018-11-25T10:54:41.583Z,994.23
2018-11-25T10:55:41.603Z,994.25
2018-11-25T10:56:41.622Z,994.23
2018-11-25T10:57:41.639Z,994.24
2018-11-25T10:58:41.658Z,994.25
2018-11-25T10:59:41.681Z,994.22
2018-11-25T11:00:41.695Z,994.22
2018-11-25T11:01:41.714Z,994.25
2018-11-25T11:02:41.732Z,994.22
2018-11-25T11:03:41.750Z,994.23
2018-11-25T11:04:41.770Z,994.27
2018-11-25T11:05:41.788Z,994.28
2018-11-25T11:06:41.807Z,994.26
2018-11-25T11:07:41.831Z,994.22
2018-11-25T11:08:41.850Z,994.26
2018-11-25T11:09:41.861Z,994.3
2018-11-25T11:10:41.880Z,994.27
2018-11-25T11:11:41.901Z,994.28
2018-11-25T11:12:41.918Z,994.29
2018-11-25T11:13:41.937Z,994.3
2018-11-25T11:14:42.009Z,994.24
2018-11-25T11:15:41.975Z,994.25
2018-11-25T11:16:41.999Z,994.25
2018-11-25T11:17:42.015Z,994.27
2018-11-25T11:18:42.029Z,994.23
2018-11-25T11:19:42.052Z,994.28
2018-11-25T11:20:42.066Z,994.25
2018-11-25T11:21:42.090Z,994.26
2018-11-25T11:22:42.106Z,994.26
2018-11-25T11:23:42.121Z,994.24
2018-11-25T11:24:42.141Z,994.21
2018-11-25T11:25:42.166Z,994.19
2018-11-25T11:26:42.178Z,994.16
2018-11-25T11:27:42.199Z,994.17
2018-11-25T11:28:42.219Z,994.2
2018-11-25T11:29:42.234Z,994.14
2018-11-25T11:30:42.252Z,994.18
2018-11-25T11:31:42.270Z,994.17
2018-11-25T11:32:42.296Z,994.19
2018-11-25T11:33:42.313Z,994.18
2018-11-25T11:34:42.326Z,994.18
2018-11-25T11:35:42.350Z,994.2
2018-11-25T11:36:42.365Z,994.17
2018-11-25T11:37:42.383Z,994.2
2018-11-25T11:38:42.404Z,994.2
2018-11-25T11:39:42.425Z,994.22
2018-11-25T11:40:42.438Z,994.22
2018-11-25T11:41:42.457Z,994.18
2018-11-25T11:42:42.476Z,994.23
2018-11-25T11:43:42.502Z,994.26
2018-11-25T11:44:42.514Z,994.23
2018-11-25T11:45:42.535Z,994.25
2018-11-25T11:46:42.552Z,994.27
2018-11-25T11:47:42.570Z,994.22
2018-11-25T11:48:42.588Z,994.24
2018-11-25T11:49:42.607Z,994.23
2018-11-25T11:50:42.626Z,994.25
2018-11-25T11:51:42.643Z,994.25
2018-11-25T11:52:42.661Z,994.24
2018-11-25T11:53:42.680Z,994.24
2018-11-25T11:54:42.703Z,994.22
2018-11-25T11:55:42.720Z,994.26
2018-11-25T11:56:42.739Z,994.29
2018-11-25T11:57:42.764Z,994.29
2018-11-25T11:58:42.778Z,994.28
2018-11-25T11:59:42.793Z,994.29
2018-11-25T12:00:42.817Z,994.25
2018-11-25T12:01:42.829Z,994.26
2018-11-25T12:02:42.847Z,994.26
2018-11-25T12:03:42.867Z,994.23
2018-11-25T12:04:42.890Z,994.28
2018-11-25T12:05:42.911Z,994.26
2018-11-25T12:06:42.928Z,994.24
2018-11-25T12:07:42.941Z,994.23
2018-11-25T12:08:42.959Z,994.23
2018-11-25T12:09:42.980Z,994.16
2018-11-25T12:10:42.997Z,994.17
2018-11-25T12:11:43.015Z,994.16
2018-11-25T12:12:43.035Z,994.16
2018-11-25T12:13:43.052Z,994.16
2018-11-25T12:14:43.075Z,994.17
2018-11-25T12:15:43.091Z,994.17
2018-11-25T12:16:43.109Z,994.18
2018-11-25T12:17:43.126Z,994.17
2018-11-25T12:18:43.152Z,994.17
2018-11-25T12:19:43.167Z,994.17
2018-11-25T12:20:43.183Z,994.2
2018-11-25T12:21:43.204Z,994.22
2018-11-25T12:22:43.219Z,994.23
2018-11-25T12:23:43.244Z,994.22
2018-11-25T12:24:43.258Z,994.19
2018-11-25T12:25:43.275Z,994.18
2018-11-25T12:26:43.294Z,994.2
2018-11-25T12:27:43.311Z,994.15
2018-11-25T12:28:43.333Z,994.14
2018-11-25T12:29:43.350Z,994.12
2018-11-25T12:30:43.371Z,994.12
2018-11-25T12:31:43.391Z,994.14